createdAt,value
2023-02-16T00:00:49.496Z,100.00
2023-02-16T00:03:19.294Z,100.00
2023-02-16T00:03:27.652Z,100.00
2023-02-16T00:05:46.392Z,100.00
2023-02-16T00:09:14.016Z,100.00
2023-02-16T00:09:14.247Z,100.00
2023-02-16T00:11:59.500Z,100.00
2023-02-16T00:13:27.666Z,100.00
2023-02-16T00:14:26.919Z,100.00
2023-02-16T00:16:55.044Z,100.00
2023-02-16T00:18:27.728Z,100.00
2023-02-16T00:19:24.475Z,100.00
2023-02-16T00:21:53.833Z,100.00
2023-02-16T00:23:27.709Z,100.00
2023-02-16T00:24:20.866Z,100.00
2023-02-16T00:26:52.985Z,100.00
2023-02-16T00:28:27.786Z,100.00
2023-02-16T00:29:37.266Z,100.00
2023-02-16T00:32:08.930Z,100.00
2023-02-16T00:33:28.769Z,100.00
2023-02-16T00:34:37.786Z,100.00
2023-02-16T00:37:13.083Z,100.00
2023-02-16T00:38:27.762Z,100.00
2023-02-16T00:39:41.474Z,100.00
2023-02-16T00:42:19.088Z,100.00
2023-02-16T00:43:27.754Z,100.00
2023-02-16T00:44:49.105Z,100.00
2023-02-16T00:47:34.146Z,100.00
2023-02-16T00:48:27.833Z,100.00
2023-02-16T00:50:00.663Z,100.00
2023-02-16T00:52:37.974Z,100.00
2023-02-16T00:53:27.757Z,100.00
2023-02-16T00:55:10.940Z,100.00
2023-02-16T00:57:52.039Z,100.00
2023-02-16T00:58:27.756Z,100.00
2023-02-16T01:00:27.141Z,100.00
2023-02-16T01:02:58.748Z,100.00
2023-02-16T01:03:27.750Z,100.00
2023-02-16T01:05:25.903Z,100.00
2023-02-16T01:08:11.415Z,100.00
2023-02-16T01:08:27.750Z,100.00
2023-02-16T01:11:11.294Z,100.00
2023-02-16T01:13:27.714Z,100.00
2023-02-16T01:13:47.621Z,100.00
2023-02-16T01:16:22.744Z,100.00
2023-02-16T01:18:27.733Z,100.00
2023-02-16T01:18:50.356Z,100.00
2023-02-16T01:21:19.436Z,100.00
2023-02-16T01:23:27.815Z,100.00
2023-02-16T01:23:48.783Z,100.00
2023-02-16T01:26:18.813Z,100.00
2023-02-16T01:28:27.901Z,100.00
2023-02-16T01:28:45.608Z,100.00
2023-02-16T01:31:13.403Z,100.00
2023-02-16T01:33:27.737Z,100.00
2023-02-16T01:33:41.512Z,100.00
2023-02-16T01:36:19.524Z,100.00
2023-02-16T01:38:27.765Z,100.00
2023-02-16T01:38:46.026Z,100.00
2023-02-16T01:41:24.754Z,100.00
2023-02-16T01:43:27.745Z,100.00
2023-02-16T01:43:58.651Z,100.00
2023-02-16T01:46:48.380Z,100.00
2023-02-16T01:48:27.822Z,100.00
2023-02-16T01:49:18.012Z,100.00
2023-02-16T01:51:55.676Z,100.00
2023-02-16T01:53:27.742Z,100.00
2023-02-16T01:54:38.692Z,100.00
2023-02-16T01:57:31.335Z,100.00
2023-02-16T01:58:27.782Z,100.00
2023-02-16T01:59:57.851Z,100.00
2023-02-16T02:02:28.030Z,100.00
2023-02-16T02:03:27.756Z,100.00
2023-02-16T02:05:21.772Z,100.00
2023-02-16T02:08:10.307Z,100.00
2023-02-16T02:08:27.754Z,100.00
2023-02-16T02:11:00.076Z,100.00
2023-02-16T02:13:58.243Z,100.00
2023-02-16T02:13:58.614Z,100.00
2023-02-16T02:16:27.554Z,100.00
2023-02-16T02:18:27.747Z,100.00
2023-02-16T02:18:54.856Z,100.00
2023-02-16T02:21:56.851Z,100.00
2023-02-16T02:23:27.878Z,100.00
2023-02-16T02:25:03.515Z,100.00
2023-02-16T02:27:39.491Z,100.00
2023-02-16T02:28:27.811Z,100.00
2023-02-16T02:30:21.517Z,100.00
2023-02-16T02:33:25.343Z,100.00
2023-02-16T02:33:27.747Z,100.00
2023-02-16T02:36:20.276Z,100.00
2023-02-16T02:38:27.803Z,100.00
2023-02-16T02:39:04.371Z,100.00
2023-02-16T02:41:52.663Z,100.00
2023-02-16T02:43:27.730Z,100.00
2023-02-16T02:44:24.414Z,100.00
2023-02-16T02:46:51.278Z,100.00
2023-02-16T02:48:28.031Z,100.00
2023-02-16T02:49:21.395Z,100.00
2023-02-16T02:51:48.936Z,100.00
2023-02-16T02:53:28.125Z,100.00
2023-02-16T02:54:36.745Z,100.00
2023-02-16T02:57:40.672Z,100.00
2023-02-16T02:58:27.761Z,100.00
2023-02-16T03:00:41.881Z,100.00
2023-02-16T03:03:39.444Z,100.00
2023-02-16T03:03:39.597Z,100.00
2023-02-16T03:06:19.785Z,100.00
2023-02-16T03:08:27.816Z,100.00
2023-02-16T03:09:00.747Z,100.00
2023-02-16T03:11:48.411Z,100.00
2023-02-16T03:13:27.758Z,100.00
2023-02-16T03:14:20.556Z,100.00
2023-02-16T03:17:13.736Z,100.00
2023-02-16T03:18:27.786Z,100.00
2023-02-16T03:20:01.487Z,100.00
2023-02-16T03:22:50.937Z,100.00
2023-02-16T03:23:27.889Z,100.00
2023-02-16T03:25:37.012Z,100.00
2023-02-16T03:28:26.115Z,100.00
2023-02-16T03:28:27.805Z,100.00
2023-02-16T03:30:56.755Z,100.00
2023-02-16T03:33:24.927Z,100.00
2023-02-16T03:33:27.771Z,100.00
2023-02-16T03:35:55.307Z,100.00
2023-02-16T03:38:25.890Z,100.00
2023-02-16T03:38:27.788Z,100.00
2023-02-16T03:40:56.610Z,100.00
2023-02-16T03:43:27.860Z,100.00
2023-02-16T03:43:28.045Z,100.00
2023-02-16T03:45:54.440Z,100.00
2023-02-16T03:48:23.938Z,100.00
2023-02-16T03:48:27.898Z,100.00
2023-02-16T03:50:50.335Z,100.00
2023-02-16T03:53:18.440Z,100.00
2023-02-16T03:53:27.973Z,100.00
2023-02-16T03:55:47.266Z,100.00
2023-02-16T03:58:17.122Z,100.00
2023-02-16T03:58:28.037Z,100.00
2023-02-16T04:00:43.651Z,100.00
2023-02-16T04:03:12.638Z,100.00
2023-02-16T04:03:28.153Z,100.00
2023-02-16T04:05:42.702Z,100.00
2023-02-16T04:08:10.332Z,100.00
2023-02-16T04:08:27.776Z,100.00
2023-02-16T04:10:38.248Z,100.00
2023-02-16T04:13:04.886Z,100.00
2023-02-16T04:13:27.771Z,100.00
2023-02-16T04:15:34.682Z,100.00
2023-02-16T04:18:02.051Z,100.00
2023-02-16T04:18:27.782Z,100.00
2023-02-16T04:20:32.450Z,100.00
2023-02-16T04:23:01.925Z,100.00
2023-02-16T04:23:27.868Z,100.00
2023-02-16T04:25:28.825Z,100.00
2023-02-16T04:27:55.937Z,100.00
2023-02-16T04:28:27.810Z,100.00
2023-02-16T04:30:25.800Z,100.00
2023-02-16T04:32:53.037Z,100.00
2023-02-16T04:33:27.768Z,100.00
2023-02-16T04:35:25.689Z,100.00
2023-02-16T04:37:52.064Z,100.00
2023-02-16T04:38:27.946Z,100.00
2023-02-16T04:40:23.173Z,100.00
2023-02-16T04:42:57.776Z,100.00
2023-02-16T04:43:27.841Z,100.00
2023-02-16T04:45:24.154Z,100.00
2023-02-16T04:47:50.814Z,100.00
2023-02-16T04:48:27.776Z,100.00
2023-02-16T04:50:17.707Z,100.00
2023-02-16T04:52:44.100Z,100.00
2023-02-16T04:53:27.788Z,100.00
2023-02-16T04:55:10.865Z,100.00
2023-02-16T04:57:40.809Z,100.00
2023-02-16T04:58:27.802Z,100.00
2023-02-16T05:00:14.246Z,100.00
2023-02-16T05:02:43.255Z,100.00
2023-02-16T05:03:27.828Z,100.00
2023-02-16T05:05:09.640Z,100.00
2023-02-16T05:07:37.128Z,100.00
2023-02-16T05:08:27.799Z,100.00
2023-02-16T05:10:05.165Z,100.00
2023-02-16T05:12:55.188Z,100.00
2023-02-16T05:13:27.790Z,100.00
2023-02-16T05:15:21.765Z,100.00
2023-02-16T05:17:48.546Z,100.00
2023-02-16T05:18:27.778Z,100.00
2023-02-16T05:20:15.253Z,100.00
2023-02-16T05:22:43.531Z,100.00
2023-02-16T05:23:27.859Z,100.00
2023-02-16T05:25:09.946Z,100.00
2023-02-16T05:27:41.519Z,100.00
2023-02-16T05:28:27.850Z,100.00
2023-02-16T05:30:08.357Z,100.00
2023-02-16T05:32:34.711Z,100.00
2023-02-16T05:33:27.828Z,100.00
2023-02-16T05:35:01.098Z,100.00
2023-02-16T05:37:27.820Z,100.00
2023-02-16T05:38:27.805Z,100.00
2023-02-16T05:39:56.981Z,100.00
2023-02-16T05:42:30.636Z,100.00
2023-02-16T05:43:27.815Z,100.00
2023-02-16T05:44:57.134Z,100.00
2023-02-16T05:47:23.820Z,100.00
2023-02-16T05:48:27.829Z,100.00
2023-02-16T05:49:50.120Z,100.00
2023-02-16T05:52:17.014Z,100.00
2023-02-16T05:53:28.082Z,100.00
2023-02-16T05:54:43.349Z,100.00
2023-02-16T05:57:10.284Z,100.00
2023-02-16T05:58:28.076Z,100.00
2023-02-16T05:59:39.899Z,100.00
2023-02-16T06:02:06.847Z,100.00
2023-02-16T06:03:28.048Z,100.00
2023-02-16T06:04:33.271Z,100.00
2023-02-16T06:07:00.020Z,100.00
2023-02-16T06:08:28.290Z,100.00
2023-02-16T06:09:26.500Z,100.00
2023-02-16T06:11:53.063Z,100.00
2023-02-16T06:13:27.976Z,100.00
2023-02-16T06:14:21.077Z,100.00
2023-02-16T06:16:50.199Z,100.00
2023-02-16T06:18:27.830Z,100.00
2023-02-16T06:19:18.303Z,100.00
2023-02-16T06:21:50.619Z,100.00
2023-02-16T06:23:27.837Z,100.00
2023-02-16T06:24:17.353Z,100.00
2023-02-16T06:26:43.740Z,100.00
2023-02-16T06:28:27.837Z,100.00
2023-02-16T06:29:13.393Z,100.00
2023-02-16T06:31:39.836Z,100.00
2023-02-16T06:33:27.812Z,100.00
2023-02-16T06:34:07.449Z,100.00
2023-02-16T06:36:34.613Z,100.00
2023-02-16T06:38:27.822Z,100.00
2023-02-16T06:39:01.521Z,100.00
2023-02-16T06:41:40.911Z,100.00
2023-02-16T06:43:29.891Z,100.00
2023-02-16T06:44:10.029Z,100.00
2023-02-16T06:46:36.777Z,100.00
2023-02-16T06:48:27.855Z,100.00
2023-02-16T06:49:03.636Z,100.00
2023-02-16T06:51:30.199Z,100.00
2023-02-16T06:53:27.825Z,100.00
2023-02-16T06:53:57.118Z,100.00
2023-02-16T06:56:23.948Z,100.00
2023-02-16T06:58:27.852Z,100.00
2023-02-16T06:58:51.083Z,100.00
2023-02-16T07:01:23.393Z,100.00
2023-02-16T07:03:27.875Z,100.00
2023-02-16T07:03:50.907Z,100.00
2023-02-16T07:06:17.858Z,100.00
2023-02-16T07:08:27.847Z,100.00
2023-02-16T07:08:44.174Z,100.00
2023-02-16T07:11:11.814Z,100.00
2023-02-16T07:13:27.845Z,100.00
2023-02-16T07:13:38.310Z,100.00
2023-02-16T07:16:06.474Z,100.00
2023-02-16T07:18:27.846Z,100.00
2023-02-16T07:18:33.555Z,100.00
2023-02-16T07:21:00.208Z,100.00
2023-02-16T07:23:26.662Z,100.00
2023-02-16T07:23:27.902Z,100.00
2023-02-16T07:25:53.209Z,100.00
2023-02-16T07:28:19.548Z,100.00
2023-02-16T07:28:27.829Z,100.00
2023-02-16T07:30:46.106Z,100.00
2023-02-16T07:33:12.481Z,100.00
2023-02-16T07:33:27.848Z,100.00
2023-02-16T07:35:38.824Z,100.00
2023-02-16T07:38:05.773Z,100.00
2023-02-16T07:38:27.815Z,100.00
2023-02-16T07:40:32.468Z,100.00
2023-02-16T07:43:04.316Z,100.00
2023-02-16T07:43:27.889Z,100.00
2023-02-16T07:45:32.660Z,100.00
2023-02-16T07:47:59.867Z,100.00
2023-02-16T07:48:27.843Z,100.00
2023-02-16T07:50:28.595Z,100.00
2023-02-16T07:52:55.011Z,100.00
2023-02-16T07:53:27.828Z,100.00
2023-02-16T07:55:21.541Z,100.00
2023-02-16T07:57:49.524Z,100.00
2023-02-16T07:58:27.911Z,100.00
2023-02-16T08:00:16.510Z,100.00
2023-02-16T08:02:42.896Z,100.00
2023-02-16T08:03:28.027Z,100.00
2023-02-16T08:05:10.666Z,100.00
2023-02-16T08:07:37.248Z,100.00
2023-02-16T08:08:27.883Z,100.00
2023-02-16T08:10:03.787Z,100.00
2023-02-16T08:12:30.186Z,100.00
2023-02-16T08:13:27.846Z,100.00
2023-02-16T08:14:56.699Z,100.00
2023-02-16T08:17:23.106Z,100.00
2023-02-16T08:18:27.903Z,100.00
2023-02-16T08:19:50.781Z,100.00
2023-02-16T08:22:18.135Z,100.00
2023-02-16T08:23:27.915Z,100.00
2023-02-16T08:24:44.697Z,100.00
2023-02-16T08:27:11.384Z,100.00
2023-02-16T08:28:29.192Z,100.00
2023-02-16T08:29:38.042Z,100.00
2023-02-16T08:32:10.282Z,100.00
2023-02-16T08:33:29.849Z,100.00
2023-02-16T08:34:37.037Z,100.00
2023-02-16T08:37:04.515Z,100.00
2023-02-16T08:38:27.850Z,100.00
2023-02-16T08:39:32.811Z,100.00
2023-02-16T08:42:02.316Z,100.00
2023-02-16T08:43:27.852Z,100.00
2023-02-16T08:44:30.497Z,100.00
2023-02-16T08:47:00.339Z,100.00
2023-02-16T08:48:27.856Z,100.00
2023-02-16T08:49:27.678Z,100.00
2023-02-16T08:51:56.550Z,100.00
2023-02-16T08:53:27.844Z,100.00
2023-02-16T08:54:27.095Z,100.00
2023-02-16T08:56:54.455Z,100.00
2023-02-16T08:58:27.843Z,100.00
2023-02-16T08:59:22.573Z,100.00
2023-02-16T09:01:49.270Z,100.00
2023-02-16T09:03:27.850Z,100.00
2023-02-16T09:04:17.448Z,100.00
2023-02-16T09:06:45.677Z,100.00
2023-02-16T09:08:27.872Z,100.00
2023-02-16T09:09:13.212Z,100.00
2023-02-16T09:11:40.950Z,100.00
2023-02-16T09:13:27.860Z,100.00
2023-02-16T09:14:09.295Z,100.00
2023-02-16T09:16:39.381Z,100.00
2023-02-16T09:18:27.875Z,100.00
2023-02-16T09:19:06.924Z,100.00
2023-02-16T09:21:33.803Z,100.00
2023-02-16T09:23:27.898Z,100.00
2023-02-16T09:24:02.319Z,100.00
2023-02-16T09:26:32.807Z,98.18
2023-02-16T09:28:27.876Z,98.18
2023-02-16T09:29:02.078Z,96.39
2023-02-16T09:31:32.524Z,94.84
2023-02-16T09:33:27.841Z,94.84
2023-02-16T09:34:22.998Z,93.09
2023-02-16T09:36:50.319Z,90.27
2023-02-16T09:38:27.911Z,90.27
2023-02-16T09:39:17.840Z,89.98
2023-02-16T09:42:02.976Z,90.03
2023-02-16T09:43:27.855Z,90.03
2023-02-16T09:44:49.073Z,89.93
2023-02-16T09:47:31.401Z,88.73
2023-02-16T09:48:27.854Z,88.73
2023-02-16T09:50:03.863Z,88.94
2023-02-16T09:52:40.291Z,89.03
2023-02-16T09:53:27.851Z,89.03
2023-02-16T09:55:15.334Z,88.68
2023-02-16T09:57:55.354Z,88.71
2023-02-16T09:58:27.878Z,88.71
2023-02-16T10:00:33.893Z,88.02
2023-02-16T10:03:38.049Z,87.97
2023-02-16T10:03:38.300Z,87.97
2023-02-16T10:06:13.661Z,86.99
2023-02-16T10:08:27.854Z,86.99
2023-02-16T10:08:53.134Z,86.90
2023-02-16T10:11:48.812Z,87.00
2023-02-16T10:13:27.886Z,87.00
2023-02-16T10:14:41.106Z,87.65
2023-02-16T10:17:19.570Z,88.42
2023-02-16T10:18:27.891Z,88.42
2023-02-16T10:20:01.575Z,88.72
2023-02-16T10:22:36.658Z,88.40
2023-02-16T10:23:27.898Z,88.40
2023-02-16T10:25:12.056Z,88.88
2023-02-16T10:27:41.882Z,88.79
2023-02-16T10:28:27.954Z,88.79
2023-02-16T10:30:15.347Z,88.16
2023-02-16T10:33:08.166Z,89.38
2023-02-16T10:33:28.133Z,89.38
2023-02-16T10:35:43.865Z,89.17
2023-02-16T10:38:21.015Z,89.65
2023-02-16T10:38:27.885Z,89.65
2023-02-16T10:41:06.221Z,89.77
2023-02-16T10:43:27.999Z,89.77
2023-02-16T10:43:44.053Z,90.38
2023-02-16T10:46:25.985Z,91.83
2023-02-16T10:48:27.976Z,91.83
2023-02-16T10:48:54.507Z,90.83
2023-02-16T10:51:28.035Z,90.75
2023-02-16T10:53:27.889Z,90.75
2023-02-16T10:54:08.293Z,91.25
2023-02-16T10:56:34.588Z,92.53
2023-02-16T10:58:27.887Z,92.53
2023-02-16T10:59:05.188Z,92.48
2023-02-16T11:01:38.840Z,92.74
2023-02-16T11:03:27.901Z,92.74
2023-02-16T11:04:05.698Z,92.29
2023-02-16T11:06:32.713Z,92.12
2023-02-16T11:08:29.757Z,92.12
2023-02-16T11:09:04.416Z,92.29
2023-02-16T11:11:38.368Z,91.32
2023-02-16T11:13:27.990Z,91.32
2023-02-16T11:14:09.142Z,90.01
2023-02-16T11:16:35.764Z,88.73
2023-02-16T11:18:27.900Z,88.73
2023-02-16T11:19:24.630Z,88.41
2023-02-16T11:21:56.975Z,86.44
2023-02-16T11:23:27.925Z,86.44
2023-02-16T11:24:30.041Z,85.63
2023-02-16T11:27:22.839Z,84.87
2023-02-16T11:28:27.905Z,84.87
2023-02-16T11:29:50.748Z,84.74
2023-02-16T11:32:21.705Z,84.04
2023-02-16T11:33:27.941Z,84.04
2023-02-16T11:34:50.982Z,82.79
2023-02-16T11:37:33.123Z,82.77
2023-02-16T11:38:27.887Z,82.77
2023-02-16T11:40:13.987Z,82.41
2023-02-16T11:42:47.074Z,82.08
2023-02-16T11:43:27.902Z,82.08
2023-02-16T11:45:27.137Z,81.97
2023-02-16T11:47:56.871Z,82.74
2023-02-16T11:48:27.918Z,82.74
2023-02-16T11:50:32.585Z,82.80
2023-02-16T11:53:14.895Z,82.43
2023-02-16T11:53:27.905Z,82.43
2023-02-16T11:55:44.240Z,81.72
2023-02-16T11:58:29.225Z,82.21
2023-02-16T11:58:29.409Z,82.21
2023-02-16T12:01:28.275Z,82.10
2023-02-16T12:03:30.445Z,82.10
2023-02-16T12:04:25.854Z,82.23
2023-02-16T12:07:15.489Z,82.42
2023-02-16T12:08:27.927Z,82.42
2023-02-16T12:10:02.268Z,82.69
2023-02-16T12:12:48.850Z,82.27
2023-02-16T12:13:27.912Z,82.27
2023-02-16T12:15:15.689Z,82.77
2023-02-16T12:17:54.853Z,83.38
2023-02-16T12:18:27.948Z,83.38
2023-02-16T12:20:31.984Z,83.35
2023-02-16T12:23:14.864Z,83.39
2023-02-16T12:23:27.926Z,83.39
2023-02-16T12:25:59.780Z,83.75
2023-02-16T12:29:08.468Z,83.74
2023-02-16T12:29:08.676Z,83.74
2023-02-16T12:32:03.199Z,84.22
2023-02-16T12:33:27.923Z,84.22
2023-02-16T12:35:00.102Z,85.00
2023-02-16T12:37:35.921Z,85.90
2023-02-16T12:38:27.885Z,85.90
2023-02-16T12:40:27.504Z,86.39
2023-02-16T12:43:04.877Z,86.41
2023-02-16T12:43:27.931Z,86.41
2023-02-16T12:45:39.320Z,87.13
2023-02-16T12:48:19.740Z,87.38
2023-02-16T12:48:27.888Z,87.38
2023-02-16T12:50:48.536Z,87.03
2023-02-16T12:53:27.918Z,86.75
2023-02-16T12:53:28.085Z,86.75
2023-02-16T12:56:01.856Z,86.17
2023-02-16T12:58:37.471Z,85.09
2023-02-16T12:58:37.611Z,85.09
2023-02-16T13:01:12.136Z,83.80
2023-02-16T13:03:28.049Z,83.80
2023-02-16T13:03:44.585Z,84.49
2023-02-16T13:06:27.675Z,84.31
2023-02-16T13:08:27.888Z,84.31
2023-02-16T13:09:18.084Z,84.51
2023-02-16T13:12:09.595Z,85.12
2023-02-16T13:13:27.913Z,85.12
2023-02-16T13:14:42.198Z,85.19
2023-02-16T13:17:17.829Z,85.10
2023-02-16T13:18:27.948Z,85.10
2023-02-16T13:19:46.814Z,84.30
2023-02-16T13:22:42.561Z,83.93
2023-02-16T13:23:27.951Z,83.93
2023-02-16T13:25:42.516Z,83.27
2023-02-16T13:28:31.613Z,82.97
2023-02-16T13:28:31.966Z,82.97
2023-02-16T13:31:37.126Z,82.52
2023-02-16T13:33:27.940Z,82.52
2023-02-16T13:34:41.500Z,81.54
2023-02-16T13:37:36.146Z,81.78
2023-02-16T13:38:27.950Z,81.78
2023-02-16T13:40:35.519Z,82.22
2023-02-16T13:43:23.901Z,84.10
2023-02-16T13:43:27.903Z,84.10
2023-02-16T13:45:54.141Z,84.98
2023-02-16T13:48:27.916Z,85.86
2023-02-16T13:48:28.043Z,85.86
2023-02-16T13:51:04.639Z,85.29
2023-02-16T13:53:27.919Z,85.29
2023-02-16T13:53:38.618Z,85.00
2023-02-16T13:56:22.333Z,85.65
2023-02-16T13:58:27.931Z,85.65
2023-02-16T13:58:50.885Z,86.02
2023-02-16T14:01:32.615Z,85.57
2023-02-16T14:03:27.938Z,85.57
2023-02-16T14:04:03.237Z,85.18
2023-02-16T14:06:37.900Z,84.27
2023-02-16T14:08:27.909Z,84.27
2023-02-16T14:09:16.272Z,83.61
2023-02-16T14:11:53.071Z,83.57
2023-02-16T14:13:27.963Z,83.57
2023-02-16T14:14:42.633Z,83.35
2023-02-16T14:17:15.596Z,82.42
2023-02-16T14:18:28.100Z,82.42
2023-02-16T14:19:57.682Z,83.36
2023-02-16T14:22:45.290Z,82.65
2023-02-16T14:23:27.928Z,82.65
2023-02-16T14:25:23.447Z,82.15
2023-02-16T14:28:01.957Z,82.16
2023-02-16T14:28:27.909Z,82.16
2023-02-16T14:30:46.927Z,81.81
2023-02-16T14:33:15.900Z,80.90
2023-02-16T14:33:27.939Z,80.90
2023-02-16T14:36:00.543Z,81.29
2023-02-16T14:38:34.556Z,80.48
2023-02-16T14:38:34.705Z,80.48
2023-02-16T14:41:04.042Z,80.34
2023-02-16T14:43:27.927Z,80.34
2023-02-16T14:43:56.029Z,81.26
2023-02-16T14:46:22.421Z,81.35
2023-02-16T14:48:28.026Z,81.35
2023-02-16T14:48:54.994Z,81.23
2023-02-16T14:52:00.182Z,81.61
2023-02-16T14:53:27.933Z,81.61
2023-02-16T14:54:58.968Z,82.44
2023-02-16T14:57:50.613Z,83.00
2023-02-16T14:58:27.918Z,83.00
2023-02-16T15:00:58.892Z,82.59
2023-02-16T15:03:37.857Z,81.76
2023-02-16T15:03:38.118Z,81.76
2023-02-16T15:06:06.259Z,81.51
2023-02-16T15:08:27.925Z,81.51
2023-02-16T15:08:48.595Z,81.30
2023-02-16T15:11:23.355Z,80.51
2023-02-16T15:13:27.941Z,80.51
2023-02-16T15:13:53.393Z,80.47
2023-02-16T15:16:22.081Z,80.60
2023-02-16T15:18:27.942Z,80.60
2023-02-16T15:18:51.912Z,81.48
2023-02-16T15:21:30.730Z,81.47
2023-02-16T15:23:27.914Z,81.47
2023-02-16T15:24:02.597Z,82.40
2023-02-16T15:26:36.327Z,82.83
2023-02-16T15:28:27.920Z,82.83
2023-02-16T15:29:21.356Z,82.79
2023-02-16T15:31:48.808Z,82.67
2023-02-16T15:33:27.939Z,82.67
2023-02-16T15:34:28.692Z,83.41
2023-02-16T15:36:56.640Z,83.33
2023-02-16T15:38:27.964Z,83.33
2023-02-16T15:39:42.655Z,83.99
2023-02-16T15:42:20.857Z,84.19
2023-02-16T15:43:27.926Z,84.19
2023-02-16T15:44:48.058Z,84.16
2023-02-16T15:47:20.946Z,84.46
2023-02-16T15:48:27.974Z,84.46
2023-02-16T15:49:47.281Z,84.77
2023-02-16T15:52:19.367Z,84.67
2023-02-16T15:53:27.970Z,84.67
2023-02-16T15:54:48.607Z,85.20
2023-02-16T15:57:38.742Z,85.90
2023-02-16T15:58:28.053Z,85.90
2023-02-16T16:00:23.212Z,85.46
2023-02-16T16:02:53.564Z,85.84
2023-02-16T16:03:27.946Z,85.84
2023-02-16T16:05:25.875Z,86.15
2023-02-16T16:07:52.750Z,85.93
2023-02-16T16:08:27.962Z,85.93
2023-02-16T16:10:29.784Z,85.71
2023-02-16T16:13:20.666Z,86.25
2023-02-16T16:13:27.941Z,86.25
2023-02-16T16:15:49.358Z,85.67
2023-02-16T16:18:37.443Z,85.08
2023-02-16T16:18:37.610Z,85.08
2023-02-16T16:21:11.699Z,85.26
2023-02-16T16:23:27.911Z,85.26
2023-02-16T16:23:38.097Z,84.64
2023-02-16T16:26:20.663Z,84.95
2023-02-16T16:28:27.956Z,84.95
2023-02-16T16:28:47.558Z,84.27
2023-02-16T16:31:31.278Z,83.32
2023-02-16T16:33:27.976Z,83.32
2023-02-16T16:34:04.593Z,83.62
2023-02-16T16:36:36.809Z,83.25
2023-02-16T16:38:27.935Z,83.25
2023-02-16T16:39:11.639Z,82.95
2023-02-16T16:41:40.149Z,82.85
2023-02-16T16:43:27.970Z,82.85
2023-02-16T16:44:12.237Z,82.50
2023-02-16T16:46:38.997Z,81.85
2023-02-16T16:48:27.964Z,81.85
2023-02-16T16:49:15.932Z,81.30
2023-02-16T16:51:43.845Z,80.83
2023-02-16T16:53:27.953Z,80.83
2023-02-16T16:54:11.409Z,80.69
2023-02-16T16:56:40.111Z,80.70
2023-02-16T16:58:27.967Z,80.70
2023-02-16T16:59:07.134Z,80.62
2023-02-16T17:01:34.017Z,80.19
2023-02-16T17:03:30.432Z,80.19
2023-02-16T17:04:01.282Z,80.32
2023-02-16T17:06:27.760Z,80.67
2023-02-16T17:08:27.947Z,80.67
2023-02-16T17:08:55.308Z,80.66
2023-02-16T17:11:34.599Z,80.39
2023-02-16T17:13:27.960Z,80.39
2023-02-16T17:14:16.528Z,80.69
2023-02-16T17:16:45.877Z,80.35
2023-02-16T17:18:27.920Z,80.35
2023-02-16T17:19:14.481Z,80.30
2023-02-16T17:21:41.723Z,80.47
2023-02-16T17:23:27.938Z,80.47
2023-02-16T17:24:10.108Z,80.67
2023-02-16T17:26:37.576Z,80.59
2023-02-16T17:28:27.958Z,80.59
2023-02-16T17:29:05.061Z,80.55
2023-02-16T17:31:31.647Z,80.82
2023-02-16T17:33:27.953Z,80.82
2023-02-16T17:33:58.092Z,80.49
2023-02-16T17:36:27.169Z,81.05
2023-02-16T17:38:27.932Z,81.05
2023-02-16T17:38:54.197Z,81.32
2023-02-16T17:41:24.051Z,81.98
2023-02-16T17:43:27.978Z,81.98
2023-02-16T17:43:50.826Z,82.05
2023-02-16T17:46:18.784Z,81.81
2023-02-16T17:48:28.323Z,81.81
2023-02-16T17:48:49.158Z,81.88
2023-02-16T17:51:18.298Z,81.59
2023-02-16T17:53:27.944Z,81.59
2023-02-16T17:53:45.313Z,81.79
2023-02-16T17:56:14.088Z,81.90
2023-02-16T17:58:27.930Z,81.90
2023-02-16T17:58:41.332Z,82.37
2023-02-16T18:01:12.721Z,82.76
2023-02-16T18:03:27.950Z,82.76
2023-02-16T18:03:39.237Z,82.97
2023-02-16T18:06:06.158Z,82.91
2023-02-16T18:08:27.950Z,82.91
2023-02-16T18:08:32.782Z,82.20
2023-02-16T18:11:02.144Z,82.37
2023-02-16T18:13:29.382Z,82.94
2023-02-16T18:13:29.516Z,82.94
2023-02-16T18:15:57.845Z,84.08
2023-02-16T18:18:24.254Z,84.38
2023-02-16T18:18:27.955Z,84.38
2023-02-16T18:20:50.641Z,84.59
2023-02-16T18:23:17.345Z,85.54
2023-02-16T18:23:27.963Z,85.54
2023-02-16T18:25:44.010Z,87.30
2023-02-16T18:28:18.328Z,90.18
2023-02-16T18:28:27.971Z,90.18
2023-02-16T18:30:47.556Z,93.01
2023-02-16T18:33:14.002Z,94.11
2023-02-16T18:33:27.986Z,94.11
2023-02-16T18:35:40.563Z,95.43
2023-02-16T18:38:07.299Z,96.17
2023-02-16T18:38:27.971Z,96.17
2023-02-16T18:40:33.625Z,96.73
2023-02-16T18:42:59.985Z,97.45
2023-02-16T18:43:27.945Z,97.45
2023-02-16T18:45:26.621Z,96.15
2023-02-16T18:47:53.078Z,93.94
2023-02-16T18:48:27.977Z,93.94
2023-02-16T18:50:19.682Z,93.80
2023-02-16T18:52:46.130Z,94.13
2023-02-16T18:53:27.972Z,94.13
2023-02-16T18:55:13.072Z,93.71
2023-02-16T18:57:39.428Z,92.32
2023-02-16T18:58:28.009Z,92.32
2023-02-16T19:00:08.849Z,91.95
2023-02-16T19:02:35.536Z,90.80
2023-02-16T19:03:30.081Z,90.80
2023-02-16T19:05:02.553Z,91.02
2023-02-16T19:07:28.939Z,89.69
2023-02-16T19:08:27.968Z,89.69
2023-02-16T19:09:57.788Z,90.09
2023-02-16T19:12:24.956Z,90.26
2023-02-16T19:13:27.974Z,90.26
2023-02-16T19:14:51.434Z,90.56
2023-02-16T19:17:17.984Z,90.77
2023-02-16T19:18:28.018Z,90.77
2023-02-16T19:19:44.823Z,90.71
2023-02-16T19:22:11.249Z,91.19
2023-02-16T19:23:27.958Z,91.19
2023-02-16T19:24:38.382Z,91.12
2023-02-16T19:27:05.009Z,92.18
2023-02-16T19:28:27.952Z,92.18
2023-02-16T19:29:31.377Z,94.93
2023-02-16T19:31:57.877Z,100.00
2023-02-16T19:33:27.969Z,100.00
2023-02-16T19:34:24.382Z,100.00
2023-02-16T19:36:50.692Z,100.00
2023-02-16T19:38:27.952Z,100.00
2023-02-16T19:39:18.098Z,100.00
2023-02-16T19:41:44.622Z,100.00
2023-02-16T19:43:27.963Z,100.00
2023-02-16T19:44:14.029Z,100.00
2023-02-16T19:46:41.217Z,100.00
2023-02-16T19:48:27.964Z,100.00
2023-02-16T19:49:08.487Z,100.00
2023-02-16T19:51:34.845Z,100.00
2023-02-16T19:53:27.985Z,100.00
2023-02-16T19:54:01.281Z,100.00
2023-02-16T19:56:27.735Z,100.00
2023-02-16T19:58:27.967Z,100.00
2023-02-16T19:58:57.973Z,100.00
2023-02-16T20:01:27.376Z,100.00
2023-02-16T20:03:27.937Z,100.00
2023-02-16T20:03:54.597Z,100.00
2023-02-16T20:06:24.128Z,100.00
2023-02-16T20:08:27.947Z,100.00
2023-02-16T20:08:51.880Z,100.00
2023-02-16T20:11:20.496Z,100.00
2023-02-16T20:13:27.958Z,100.00
2023-02-16T20:13:47.435Z,100.00
2023-02-16T20:16:15.301Z,100.00
2023-02-16T20:18:28.047Z,100.00
2023-02-16T20:18:42.427Z,100.00
2023-02-16T20:21:23.626Z,100.00
2023-02-16T20:23:27.974Z,100.00
2023-02-16T20:23:53.199Z,100.00
2023-02-16T20:26:23.801Z,100.00
2023-02-16T20:28:28.032Z,100.00
2023-02-16T20:28:51.452Z,100.00
2023-02-16T20:31:25.461Z,100.00
2023-02-16T20:33:27.987Z,100.00
2023-02-16T20:33:52.926Z,100.00
2023-02-16T20:36:19.489Z,100.00
2023-02-16T20:38:27.982Z,100.00
2023-02-16T20:38:46.170Z,100.00
2023-02-16T20:41:12.731Z,100.00
2023-02-16T20:43:27.997Z,100.00
2023-02-16T20:43:39.495Z,100.00
2023-02-16T20:46:07.484Z,100.00
2023-02-16T20:48:27.992Z,100.00
2023-02-16T20:48:34.902Z,100.00
2023-02-16T20:51:03.667Z,100.00
2023-02-16T20:53:27.972Z,100.00
2023-02-16T20:53:30.147Z,100.00
2023-02-16T20:56:02.498Z,100.00
2023-02-16T20:58:29.657Z,100.00
2023-02-16T20:58:29.817Z,100.00
2023-02-16T21:00:56.321Z,100.00
2023-02-16T21:03:22.821Z,100.00
2023-02-16T21:03:27.969Z,100.00
2023-02-16T21:05:49.300Z,100.00
2023-02-16T21:08:15.656Z,100.00
2023-02-16T21:08:27.955Z,100.00
2023-02-16T21:10:42.010Z,100.00
2023-02-16T21:13:08.494Z,100.00
2023-02-16T21:13:27.992Z,100.00
2023-02-16T21:15:37.407Z,100.00
2023-02-16T21:18:04.984Z,100.00
2023-02-16T21:18:27.959Z,100.00
2023-02-16T21:20:31.749Z,100.00
2023-02-16T21:22:58.227Z,100.00
2023-02-16T21:23:27.969Z,100.00
2023-02-16T21:25:24.910Z,100.00